• Join FlightAware (Why Join?)
  • Login
  • US Flag 
12:31PM EDT


 

Airport Tracker/Info


-or-


 

Live Flight TrackerFlight Track Log ✈ SAS4186 ✈ 20-Jun-2012 ✈ ENZV / SVG - ENBR / BGO

Flight Track Log - Related Links

Times and Time Zones

All times are in EDT time to prevent confusion due to time zone crossing. See the SAS4186 flight status page for this flight to view local times or setup timezone preferences in your user account.

Time Position Orientation Groundspeed Altitude Reporting Facility
EDT Latitude Longitude Course Direction KTS MPH feet Rate Location/Type
12:02PM 59.2149 5.5408 352° North  Level Estimated
12:03PM 59.3329 5.5065 352° North  Level Estimated
12:04PM 59.4509 5.4720 352° North  Level Estimated
12:05PM 59.5688 5.4372 351° North  Level Estimated
12:06PM 59.6868 5.4022 351° North  Level Estimated
12:07PM 59.8047 5.3669 351° North  Level Estimated
12:08PM 59.9227 5.3314 351° North  Level Estimated
12:09PM 60.0406 5.2957 351° North  Level Estimated
12:10PM 60.1585 5.2597 351° North  Level Estimated
12:11PM 60.2764 5.2234 351° North  Level Estimated
12:12PM 60.3943 5.1868 171° South  Level Estimated
12:13PM 60.2765 5.2234 351° North  Level Estimated
12:14PM 60.3943 5.1868 171° South  Level Estimated
12:15PM 60.2765 5.2234 351° North  Level Estimated
12:16PM 60.3943 5.1868 171° South  Level Estimated
12:17PM 60.2765 5.2234 351° North  Level Estimated
12:18PM 60.3943 5.1868 171° South  Level Estimated
12:19PM 60.2765 5.2234 351° North  Level Estimated
12:20PM 60.3943 5.1868 171° South  Level Estimated
12:21PM 60.2765 5.2234 351° North  Level Estimated
12:22PM 60.3943 5.1868 171° South  Level Estimated
12:23PM 60.2765 5.2234 351° North  Level Estimated
12:24PM 60.3943 5.1868 171° South  Level Estimated
12:25PM 60.2765 5.2234 351° North  Level Estimated
12:26PM 60.3943 5.1868 171° South  Level Estimated
12:27PM 60.2765 5.2234 171° South  Level Estimated